Latest METARs, TAFs and NOTAMs for EGGW


---------------------------------------------------------------------------
	(OBSERVATIONS)
EGGW 231320Z AUTO 21009KT 130V250 9999 NCD 31/12 Q1016=
EGGW 231250Z AUTO 23007KT 180V290 9999 NCD 30/13 Q1016=
EGGW 231220Z AUTO 25007KT 170V310 9999 NCD 29/14 Q1016=
EGGW 231150Z AUTO 25006KT 230V290 9999 SCT048 29/14 Q1016=
EGGW 231120Z AUTO 21007KT 160V260 9999 SCT047 29/14 Q1016=
EGGW 231050Z AUTO 24007KT 120V280 9999 SCT044 29/15 Q1016=
---------------------------------------------------------------------------
	(FC)
Sorry, FC For EGGW Not Found
---------------------------------------------------------------------------
	(TERMINAL AREA FORECAST)
EGGW 231054Z 2312/2412 22008KT 9999 FEW040 PROB30 2401/2407
    6000=
---------------------------------------------------------------------------
	(NOTAMS)


EGGW A1610/18 AMEND GROUND MOVEMENT TEXT AS FOLLOWS: PARA (G)
    AIRCRAFT PUSHING-BACK FROM STANDS 43L, 43, 44L, 44, 44R,
    45, 45R, 46, 47, 48 AND 49 MUST NOT INFRINGE TAXIWAY DELTA
    WITHOUT SPECIFIC CLEARANCE FROM ATC. UK AIP AD 2.20 PARA
    G REFERS AMEND AIRCRAFT PARKING/DOCKING CHART AS FOLLOWS
    CHANGE STAND NUMBERS ON SOUTH SIDE OF EAST APRON TO 46, 47,
    48 AND 49. REMOVE STANDS 47L, 47R AND 48L AND ADD 46 AND
    49. SHOW 46, 47, 48 AND 49 TO BE SURVEYED. UK AIP AD 2-EGGW-2-2.
    04 MAY 14:03 2018 UNTIL PERM. CREATED: 04 MAY 14:03 2018

EGGW A1939/18 TWO LIT CRANES OPR AT PSN 515253N 0002527W AND
    515253N 0002528W (LUTON), HGT 661FT AMSL/288FT AGL. 01 JUL
    00:00 2018 UNTIL PERM. CREATED: 04 JUN 07:47 2018

EGGW A2154/18 LIT MOBILE CRANE OPR AT 515228N 0002308W (LUTON),
    268 DEG MAG 1190M FROM ARP MAX HGT 209FT AGL 633FT AMSL.
    CRANE WILL BE LOWERED AT NIGHT AND DURING LVP. 26 JUN 13:32
    2018 UNTIL 31 AUG 17:00 2018. CREATED: 26 JUN 13:33 2018

---------------------------------------------------------------------------